sensor_id;sensor_type;location;lat;lon;timestamp;P1;durP1;ratioP1;P2;durP2;ratioP2
27758;SDS011;15148;48.972;12.794;2022-07-29T00:01:55;5.38;;;4.88;;
27758;SDS011;15148;48.972;12.794;2022-07-29T00:06:57;5.95;;;4.85;;
27758;SDS011;15148;48.972;12.794;2022-07-29T00:12:00;7.72;;;5.18;;
27758;SDS011;15148;48.972;12.794;2022-07-29T00:17:02;5.30;;;4.90;;
27758;SDS011;15148;48.972;12.794;2022-07-29T00:22:04;6.68;;;5.40;;
27758;SDS011;15148;48.972;12.794;2022-07-29T00:27:06;4.57;;;4.18;;
27758;SDS011;15148;48.972;12.794;2022-07-29T00:32:08;5.32;;;4.82;;
27758;SDS011;15148;48.972;12.794;2022-07-29T00:37:10;6.00;;;5.40;;
27758;SDS011;15148;48.972;12.794;2022-07-29T00:42:11;7.07;;;5.45;;
27758;SDS011;15148;48.972;12.794;2022-07-29T00:47:13;6.10;;;5.60;;
27758;SDS011;15148;48.972;12.794;2022-07-29T00:52:15;6.20;;;5.03;;
27758;SDS011;15148;48.972;12.794;2022-07-29T00:57:17;6.00;;;5.40;;
27758;SDS011;15148;48.972;12.794;2022-07-29T01:02:19;5.47;;;5.00;;
27758;SDS011;15148;48.972;12.794;2022-07-29T01:07:21;6.00;;;5.40;;
27758;SDS011;15148;48.972;12.794;2022-07-29T01:12:24;5.72;;;5.10;;
27758;SDS011;15148;48.972;12.794;2022-07-29T01:28:07;5.35;;;4.88;;
27758;SDS011;15148;48.972;12.794;2022-07-29T01:33:19;5.93;;;5.30;;
27758;SDS011;15148;48.972;12.794;2022-07-29T01:38:42;6.40;;;5.90;;
27758;SDS011;15148;48.972;12.794;2022-07-29T01:43:51;5.85;;;5.20;;
27758;SDS011;15148;48.972;12.794;2022-07-29T01:49:06;6.18;;;5.68;;
27758;SDS011;15148;48.972;12.794;2022-07-29T01:54:16;6.50;;;5.60;;
27758;SDS011;15148;48.972;12.794;2022-07-29T01:59:30;6.13;;;5.53;;
27758;SDS011;15148;48.972;12.794;2022-07-29T02:04:34;6.38;;;5.38;;
27758;SDS011;15148;48.972;12.794;2022-07-29T02:09:38;6.43;;;5.45;;
27758;SDS011;15148;48.972;12.794;2022-07-29T02:14:43;6.40;;;5.80;;
27758;SDS011;15148;48.972;12.794;2022-07-29T02:19:48;6.57;;;5.35;;
27758;SDS011;15148;48.972;12.794;2022-07-29T02:24:53;6.32;;;5.55;;
27758;SDS011;15148;48.972;12.794;2022-07-29T02:29:56;6.25;;;5.65;;
27758;SDS011;15148;48.972;12.794;2022-07-29T02:34:59;6.03;;;5.53;;
27758;SDS011;15148;48.972;12.794;2022-07-29T02:40:03;6.15;;;5.50;;
27758;SDS011;15148;48.972;12.794;2022-07-29T02:45:07;7.60;;;5.50;;
27758;SDS011;15148;48.972;12.794;2022-07-29T02:50:17;6.65;;;5.93;;
27758;SDS011;15148;48.972;12.794;2022-07-29T02:55:32;7.25;;;5.53;;
27758;SDS011;15148;48.972;12.794;2022-07-29T03:00:37;8.07;;;6.18;;
27758;SDS011;15148;48.972;12.794;2022-07-29T03:05:41;8.35;;;6.95;;
27758;SDS011;15148;48.972;12.794;2022-07-29T03:10:44;8.07;;;7.13;;
27758;SDS011;15148;48.972;12.794;2022-07-29T03:15:48;8.10;;;7.28;;
27758;SDS011;15148;48.972;12.794;2022-07-29T03:20:50;8.98;;;6.90;;
27758;SDS011;15148;48.972;12.794;2022-07-29T03:25:52;8.35;;;7.47;;
27758;SDS011;15148;48.972;12.794;2022-07-29T03:30:54;7.88;;;6.47;;
27758;SDS011;15148;48.972;12.794;2022-07-29T03:35:56;8.23;;;7.22;;
27758;SDS011;15148;48.972;12.794;2022-07-29T03:41:01;7.68;;;6.97;;
27758;SDS011;15148;48.972;12.794;2022-07-29T03:46:09;8.65;;;7.82;;
27758;SDS011;15148;48.972;12.794;2022-07-29T03:51:12;9.77;;;7.38;;
27758;SDS011;15148;48.972;12.794;2022-07-29T03:56:15;7.97;;;7.03;;
27758;SDS011;15148;48.972;12.794;2022-07-29T04:01:21;11.27;;;7.40;;
27758;SDS011;15148;48.972;12.794;2022-07-29T04:06:25;9.00;;;7.85;;
27758;SDS011;15148;48.972;12.794;2022-07-29T04:11:27;7.82;;;7.07;;
27758;SDS011;15148;48.972;12.794;2022-07-29T04:16:28;9.00;;;7.60;;
27758;SDS011;15148;48.972;12.794;2022-07-29T04:21:30;7.85;;;7.10;;
27758;SDS011;15148;48.972;12.794;2022-07-29T04:26:37;7.88;;;7.07;;
27758;SDS011;15148;48.972;12.794;2022-07-29T04:31:39;7.45;;;6.85;;
27758;SDS011;15148;48.972;12.794;2022-07-29T04:36:41;7.90;;;7.05;;
27758;SDS011;15148;48.972;12.794;2022-07-29T04:41:43;7.20;;;6.60;;
27758;SDS011;15148;48.972;12.794;2022-07-29T04:46:46;8.23;;;7.53;;
27758;SDS011;15148;48.972;12.794;2022-07-29T04:51:48;8.52;;;7.72;;
27758;SDS011;15148;48.972;12.794;2022-07-29T04:56:50;7.65;;;7.00;;
27758;SDS011;15148;48.972;12.794;2022-07-29T05:01:52;7.30;;;6.70;;
27758;SDS011;15148;48.972;12.794;2022-07-29T05:06:54;7.65;;;7.05;;
27758;SDS011;15148;48.972;12.794;2022-07-29T05:11:56;7.78;;;7.15;;
27758;SDS011;15148;48.972;12.794;2022-07-29T05:16:58;8.73;;;7.65;;
27758;SDS011;15148;48.972;12.794;2022-07-29T05:22:00;8.50;;;7.50;;
27758;SDS011;15148;48.972;12.794;2022-07-29T05:27:02;8.10;;;7.32;;
27758;SDS011;15148;48.972;12.794;2022-07-29T05:32:04;7.80;;;7.00;;
27758;SDS011;15148;48.972;12.794;2022-07-29T05:37:06;7.35;;;6.63;;
27758;SDS011;15148;48.972;12.794;2022-07-29T05:42:09;7.85;;;6.65;;
27758;SDS011;15148;48.972;12.794;2022-07-29T05:47:11;7.30;;;6.72;;
27758;SDS011;15148;48.972;12.794;2022-07-29T05:52:13;7.18;;;6.50;;
27758;SDS011;15148;48.972;12.794;2022-07-29T05:57:16;6.90;;;5.75;;
27758;SDS011;15148;48.972;12.794;2022-07-29T06:02:18;6.97;;;6.28;;
27758;SDS011;15148;48.972;12.794;2022-07-29T06:07:20;6.75;;;6.05;;
27758;SDS011;15148;48.972;12.794;2022-07-29T06:12:22;7.70;;;5.97;;
27758;SDS011;15148;48.972;12.794;2022-07-29T06:17:24;6.28;;;5.78;;
27758;SDS011;15148;48.972;12.794;2022-07-29T06:22:26;6.68;;;6.07;;
27758;SDS011;15148;48.972;12.794;2022-07-29T06:27:28;7.00;;;6.07;;
27758;SDS011;15148;48.972;12.794;2022-07-29T06:32:31;10.13;;;6.05;;
27758;SDS011;15148;48.972;12.794;2022-07-29T06:37:33;6.55;;;6.00;;
27758;SDS011;15148;48.972;12.794;2022-07-29T06:42:41;6.10;;;5.43;;
27758;SDS011;15148;48.972;12.794;2022-07-29T06:47:43;6.50;;;5.90;;
27758;SDS011;15148;48.972;12.794;2022-07-29T06:52:47;7.05;;;5.97;;
27758;SDS011;15148;48.972;12.794;2022-07-29T06:57:49;7.40;;;5.90;;
27758;SDS011;15148;48.972;12.794;2022-07-29T07:02:51;6.32;;;5.72;;
27758;SDS011;15148;48.972;12.794;2022-07-29T07:07:53;5.97;;;5.38;;
27758;SDS011;15148;48.972;12.794;2022-07-29T07:12:55;7.43;;;6.00;;
27758;SDS011;15148;48.972;12.794;2022-07-29T07:17:57;6.18;;;5.57;;
27758;SDS011;15148;48.972;12.794;2022-07-29T07:22:59;8.95;;;6.03;;
27758;SDS011;15148;48.972;12.794;2022-07-29T07:28:01;9.43;;;6.38;;
27758;SDS011;15148;48.972;12.794;2022-07-29T07:33:03;6.93;;;6.28;;
27758;SDS011;15148;48.972;12.794;2022-07-29T07:38:05;6.65;;;6.05;;
27758;SDS011;15148;48.972;12.794;2022-07-29T07:43:07;6.90;;;6.30;;
27758;SDS011;15148;48.972;12.794;2022-07-29T07:48:09;6.55;;;5.95;;
27758;SDS011;15148;48.972;12.794;2022-07-29T07:53:11;6.63;;;5.97;;
27758;SDS011;15148;48.972;12.794;2022-07-29T07:58:13;7.45;;;6.13;;
27758;SDS011;15148;48.972;12.794;2022-07-29T08:03:15;8.55;;;6.18;;
27758;SDS011;15148;48.972;12.794;2022-07-29T08:08:17;7.30;;;6.60;;
27758;SDS011;15148;48.972;12.794;2022-07-29T08:13:20;6.85;;;6.30;;
27758;SDS011;15148;48.972;12.794;2022-07-29T08:18:23;7.03;;;6.38;;
27758;SDS011;15148;48.972;12.794;2022-07-29T08:23:26;6.72;;;5.72;;
27758;SDS011;15148;48.972;12.794;2022-07-29T08:28:48;6.43;;;5.82;;
27758;SDS011;15148;48.972;12.794;2022-07-29T08:33:52;9.40;;;7.60;;
27758;SDS011;15148;48.972;12.794;2022-07-29T08:38:53;6.82;;;6.22;;
27758;SDS011;15148;48.972;12.794;2022-07-29T08:43:55;5.90;;;5.38;;
27758;SDS011;15148;48.972;12.794;2022-07-29T08:48:57;9.13;;;6.20;;
27758;SDS011;15148;48.972;12.794;2022-07-29T08:53:59;8.80;;;5.68;;
27758;SDS011;15148;48.972;12.794;2022-07-29T08:59:03;7.40;;;6.32;;
27758;SDS011;15148;48.972;12.794;2022-07-29T09:04:10;5.57;;;4.93;;
27758;SDS011;15148;48.972;12.794;2022-07-29T09:09:13;6.43;;;5.85;;
27758;SDS011;15148;48.972;12.794;2022-07-29T09:14:15;8.32;;;6.85;;
27758;SDS011;15148;48.972;12.794;2022-07-29T09:19:24;7.13;;;6.30;;
27758;SDS011;15148;48.972;12.794;2022-07-29T09:24:27;7.05;;;6.35;;
27758;SDS011;15148;48.972;12.794;2022-07-29T09:29:39;8.13;;;6.30;;
27758;SDS011;15148;48.972;12.794;2022-07-29T09:34:41;7.78;;;5.90;;
27758;SDS011;15148;48.972;12.794;2022-07-29T09:39:43;6.00;;;5.50;;
27758;SDS011;15148;48.972;12.794;2022-07-29T09:44:48;5.82;;;5.30;;
27758;SDS011;15148;48.972;12.794;2022-07-29T09:49:55;7.65;;;6.00;;
27758;SDS011;15148;48.972;12.794;2022-07-29T09:55:05;6.03;;;5.43;;
27758;SDS011;15148;48.972;12.794;2022-07-29T10:00:09;6.00;;;5.30;;
27758;SDS011;15148;48.972;12.794;2022-07-29T10:05:17;5.63;;;5.13;;
27758;SDS011;15148;48.972;12.794;2022-07-29T10:10:22;6.80;;;4.72;;
27758;SDS011;15148;48.972;12.794;2022-07-29T10:15:38;5.70;;;4.88;;
27758;SDS011;15148;48.972;12.794;2022-07-29T10:20:42;5.85;;;5.28;;
27758;SDS011;15148;48.972;12.794;2022-07-29T10:25:45;6.28;;;5.03;;
27758;SDS011;15148;48.972;12.794;2022-07-29T10:30:47;7.13;;;5.47;;
27758;SDS011;15148;48.972;12.794;2022-07-29T10:36:02;5.45;;;4.95;;
27758;SDS011;15148;48.972;12.794;2022-07-29T10:46:48;5.85;;;5.10;;
27758;SDS011;15148;48.972;12.794;2022-07-29T10:57:17;6.30;;;4.70;;
27758;SDS011;15148;48.972;12.794;2022-07-29T11:02:49;5.63;;;5.13;;
27758;SDS011;15148;48.972;12.794;2022-07-29T11:24:14;7.05;;;4.78;;
27758;SDS011;15148;48.972;12.794;2022-07-29T11:29:29;7.05;;;4.68;;
27758;SDS011;15148;48.972;12.794;2022-07-29T11:34:40;5.30;;;4.70;;
27758;SDS011;15148;48.972;12.794;2022-07-29T11:45:06;5.68;;;4.32;;
27758;SDS011;15148;48.972;12.794;2022-07-29T11:50:45;6.05;;;4.45;;
27758;SDS011;15148;48.972;12.794;2022-07-29T11:55:48;4.95;;;4.55;;
27758;SDS011;15148;48.972;12.794;2022-07-29T12:00:59;4.93;;;3.92;;
27758;SDS011;15148;48.972;12.794;2022-07-29T12:06:12;6.20;;;3.75;;
27758;SDS011;15148;48.972;12.794;2022-07-29T12:11:19;3.47;;;3.28;;
27758;SDS011;15148;48.972;12.794;2022-07-29T12:21:52;3.30;;;3.00;;
27758;SDS011;15148;48.972;12.794;2022-07-29T12:26:57;4.07;;;3.33;;
27758;SDS011;15148;48.972;12.794;2022-07-29T12:32:00;3.92;;;3.63;;
27758;SDS011;15148;48.972;12.794;2022-07-29T12:37:04;4.63;;;3.63;;
27758;SDS011;15148;48.972;12.794;2022-07-29T12:42:11;4.10;;;3.33;;
27758;SDS011;15148;48.972;12.794;2022-07-29T12:47:15;3.28;;;2.65;;
27758;SDS011;15148;48.972;12.794;2022-07-29T12:57:31;3.60;;;3.30;;
27758;SDS011;15148;48.972;12.794;2022-07-29T13:02:53;3.10;;;2.80;;
27758;SDS011;15148;48.972;12.794;2022-07-29T13:08:06;4.45;;;3.00;;
27758;SDS011;15148;48.972;12.794;2022-07-29T13:13:22;3.42;;;3.05;;
27758;SDS011;15148;48.972;12.794;2022-07-29T13:18:34;3.72;;;2.72;;
27758;SDS011;15148;48.972;12.794;2022-07-29T13:23:37;4.35;;;2.78;;
27758;SDS011;15148;48.972;12.794;2022-07-29T13:28:39;3.22;;;2.92;;
27758;SDS011;15148;48.972;12.794;2022-07-29T13:33:44;2.50;;;2.30;;
27758;SDS011;15148;48.972;12.794;2022-07-29T13:38:46;2.97;;;2.65;;
27758;SDS011;15148;48.972;12.794;2022-07-29T13:43:48;3.35;;;2.70;;
27758;SDS011;15148;48.972;12.794;2022-07-29T13:48:50;3.00;;;2.80;;
27758;SDS011;15148;48.972;12.794;2022-07-29T13:53:52;7.97;;;2.65;;
27758;SDS011;15148;48.972;12.794;2022-07-29T13:58:54;3.50;;;2.70;;
27758;SDS011;15148;48.972;12.794;2022-07-29T14:03:56;3.03;;;2.78;;
27758;SDS011;15148;48.972;12.794;2022-07-29T14:08:58;3.53;;;2.40;;
27758;SDS011;15148;48.972;12.794;2022-07-29T14:14:00;3.30;;;2.30;;
27758;SDS011;15148;48.972;12.794;2022-07-29T14:19:02;4.22;;;2.70;;
27758;SDS011;15148;48.972;12.794;2022-07-29T14:24:04;2.42;;;2.30;;
27758;SDS011;15148;48.972;12.794;2022-07-29T14:29:21;2.63;;;2.42;;
27758;SDS011;15148;48.972;12.794;2022-07-29T14:34:37;2.60;;;2.40;;
27758;SDS011;15148;48.972;12.794;2022-07-29T14:39:39;2.90;;;2.45;;
27758;SDS011;15148;48.972;12.794;2022-07-29T14:44:43;3.53;;;2.58;;
27758;SDS011;15148;48.972;12.794;2022-07-29T14:49:47;4.35;;;2.55;;
27758;SDS011;15148;48.972;12.794;2022-07-29T14:54:48;3.45;;;2.53;;
27758;SDS011;15148;48.972;12.794;2022-07-29T14:59:51;4.90;;;2.67;;
27758;SDS011;15148;48.972;12.794;2022-07-29T15:04:53;3.03;;;2.47;;
27758;SDS011;15148;48.972;12.794;2022-07-29T15:09:54;2.75;;;2.40;;
27758;SDS011;15148;48.972;12.794;2022-07-29T15:15:00;3.33;;;2.70;;
27758;SDS011;15148;48.972;12.794;2022-07-29T15:20:03;2.80;;;2.58;;
27758;SDS011;15148;48.972;12.794;2022-07-29T15:25:06;2.78;;;2.58;;
27758;SDS011;15148;48.972;12.794;2022-07-29T15:30:08;2.80;;;2.60;;
27758;SDS011;15148;48.972;12.794;2022-07-29T15:35:29;3.20;;;2.30;;
27758;SDS011;15148;48.972;12.794;2022-07-29T15:40:31;2.88;;;2.33;;
27758;SDS011;15148;48.972;12.794;2022-07-29T15:45:39;3.78;;;3.17;;
27758;SDS011;15148;48.972;12.794;2022-07-29T15:50:42;3.17;;;2.30;;
27758;SDS011;15148;48.972;12.794;2022-07-29T15:55:47;3.10;;;2.80;;
27758;SDS011;15148;48.972;12.794;2022-07-29T16:00:49;2.72;;;2.08;;
27758;SDS011;15148;48.972;12.794;2022-07-29T16:05:51;2.80;;;2.60;;
27758;SDS011;15148;48.972;12.794;2022-07-29T16:10:58;2.20;;;2.10;;
27758;SDS011;15148;48.972;12.794;2022-07-29T16:15:59;2.55;;;2.13;;
27758;SDS011;15148;48.972;12.794;2022-07-29T16:21:03;2.50;;;2.30;;
27758;SDS011;15148;48.972;12.794;2022-07-29T16:26:05;2.92;;;2.60;;
27758;SDS011;15148;48.972;12.794;2022-07-29T16:31:07;2.83;;;2.63;;
27758;SDS011;15148;48.972;12.794;2022-07-29T16:36:09;2.65;;;2.42;;
27758;SDS011;15148;48.972;12.794;2022-07-29T16:41:13;2.67;;;2.22;;
27758;SDS011;15148;48.972;12.794;2022-07-29T16:46:15;4.05;;;2.45;;
27758;SDS011;15148;48.972;12.794;2022-07-29T16:51:19;2.80;;;2.50;;
27758;SDS011;15148;48.972;12.794;2022-07-29T16:56:21;5.75;;;2.58;;
27758;SDS011;15148;48.972;12.794;2022-07-29T17:01:23;3.05;;;2.75;;
27758;SDS011;15148;48.972;12.794;2022-07-29T17:06:25;4.07;;;2.33;;
27758;SDS011;15148;48.972;12.794;2022-07-29T17:11:35;2.58;;;2.35;;
27758;SDS011;15148;48.972;12.794;2022-07-29T17:16:55;3.45;;;2.63;;
27758;SDS011;15148;48.972;12.794;2022-07-29T17:22:02;3.17;;;2.70;;
27758;SDS011;15148;48.972;12.794;2022-07-29T17:27:19;4.43;;;2.53;;
27758;SDS011;15148;48.972;12.794;2022-07-29T17:32:21;6.25;;;4.63;;
27758;SDS011;15148;48.972;12.794;2022-07-29T17:37:23;3.15;;;2.75;;
27758;SDS011;15148;48.972;12.794;2022-07-29T17:42:25;5.20;;;2.40;;
27758;SDS011;15148;48.972;12.794;2022-07-29T17:47:26;2.67;;;2.47;;
27758;SDS011;15148;48.972;12.794;2022-07-29T17:52:28;2.40;;;2.20;;
27758;SDS011;15148;48.972;12.794;2022-07-29T17:57:30;2.85;;;2.28;;
27758;SDS011;15148;48.972;12.794;2022-07-29T18:02:32;2.58;;;2.33;;
27758;SDS011;15148;48.972;12.794;2022-07-29T18:07:34;8.02;;;3.50;;
27758;SDS011;15148;48.972;12.794;2022-07-29T18:12:36;5.88;;;3.17;;
27758;SDS011;15148;48.972;12.794;2022-07-29T18:17:38;6.45;;;5.30;;
27758;SDS011;15148;48.972;12.794;2022-07-29T18:22:58;6.65;;;5.95;;
27758;SDS011;15148;48.972;12.794;2022-07-29T18:28:01;6.35;;;5.60;;
27758;SDS011;15148;48.972;12.794;2022-07-29T18:33:04;4.00;;;3.60;;
27758;SDS011;15148;48.972;12.794;2022-07-29T18:38:24;3.25;;;2.97;;
27758;SDS011;15148;48.972;12.794;2022-07-29T18:43:25;3.35;;;3.05;;
27758;SDS011;15148;48.972;12.794;2022-07-29T18:48:27;3.50;;;2.67;;
27758;SDS011;15148;48.972;12.794;2022-07-29T18:53:29;4.28;;;3.88;;
27758;SDS011;15148;48.972;12.794;2022-07-29T18:58:37;4.93;;;4.53;;
27758;SDS011;15148;48.972;12.794;2022-07-29T19:03:39;5.20;;;4.63;;
27758;SDS011;15148;48.972;12.794;2022-07-29T19:08:41;5.00;;;4.60;;
27758;SDS011;15148;48.972;12.794;2022-07-29T19:13:43;4.95;;;4.45;;
27758;SDS011;15148;48.972;12.794;2022-07-29T19:18:45;5.10;;;4.40;;
27758;SDS011;15148;48.972;12.794;2022-07-29T19:23:47;5.60;;;4.05;;
27758;SDS011;15148;48.972;12.794;2022-07-29T19:29:07;5.05;;;3.30;;
27758;SDS011;15148;48.972;12.794;2022-07-29T19:34:09;3.90;;;3.60;;
27758;SDS011;15148;48.972;12.794;2022-07-29T19:39:11;8.65;;;4.32;;
27758;SDS011;15148;48.972;12.794;2022-07-29T19:44:13;7.60;;;4.85;;
27758;SDS011;15148;48.972;12.794;2022-07-29T19:49:16;5.20;;;4.20;;
27758;SDS011;15148;48.972;12.794;2022-07-29T19:54:18;4.60;;;4.20;;
27758;SDS011;15148;48.972;12.794;2022-07-29T19:59:20;4.88;;;3.88;;
27758;SDS011;15148;48.972;12.794;2022-07-29T20:04:24;5.05;;;4.13;;
27758;SDS011;15148;48.972;12.794;2022-07-29T20:09:26;7.30;;;4.50;;
27758;SDS011;15148;48.972;12.794;2022-07-29T20:14:28;5.75;;;5.07;;
27758;SDS011;15148;48.972;12.794;2022-07-29T20:19:30;5.32;;;4.82;;
27758;SDS011;15148;48.972;12.794;2022-07-29T20:24:33;5.95;;;5.45;;
27758;SDS011;15148;48.972;12.794;2022-07-29T20:29:35;6.10;;;5.07;;
27758;SDS011;15148;48.972;12.794;2022-07-29T20:34:37;5.68;;;5.18;;
27758;SDS011;15148;48.972;12.794;2022-07-29T20:39:41;9.45;;;5.80;;
27758;SDS011;15148;48.972;12.794;2022-07-29T20:44:43;6.07;;;5.57;;
27758;SDS011;15148;48.972;12.794;2022-07-29T20:49:45;9.05;;;6.53;;
27758;SDS011;15148;48.972;12.794;2022-07-29T20:54:47;6.28;;;5.50;;
27758;SDS011;15148;48.972;12.794;2022-07-29T20:59:49;7.82;;;5.85;;
27758;SDS011;15148;48.972;12.794;2022-07-29T21:04:51;8.07;;;5.97;;
27758;SDS011;15148;48.972;12.794;2022-07-29T21:09:53;5.97;;;5.38;;
27758;SDS011;15148;48.972;12.794;2022-07-29T21:14:55;8.00;;;5.25;;
27758;SDS011;15148;48.972;12.794;2022-07-29T21:20:05;6.10;;;5.25;;
27758;SDS011;15148;48.972;12.794;2022-07-29T21:25:09;5.40;;;4.90;;
27758;SDS011;15148;48.972;12.794;2022-07-29T21:30:11;5.80;;;5.30;;
27758;SDS011;15148;48.972;12.794;2022-07-29T21:35:13;6.18;;;3.88;;
27758;SDS011;15148;48.972;12.794;2022-07-29T21:40:36;4.18;;;3.78;;
27758;SDS011;15148;48.972;12.794;2022-07-29T21:45:38;4.15;;;3.75;;
27758;SDS011;15148;48.972;12.794;2022-07-29T21:50:40;5.22;;;4.30;;
27758;SDS011;15148;48.972;12.794;2022-07-29T21:55:42;5.00;;;4.60;;
27758;SDS011;15148;48.972;12.794;2022-07-29T22:00:44;7.25;;;6.13;;
27758;SDS011;15148;48.972;12.794;2022-07-29T22:05:46;6.32;;;5.70;;
27758;SDS011;15148;48.972;12.794;2022-07-29T22:10:47;6.75;;;6.13;;
27758;SDS011;15148;48.972;12.794;2022-07-29T22:15:49;7.10;;;6.38;;
27758;SDS011;15148;48.972;12.794;2022-07-29T22:20:51;6.40;;;5.80;;
27758;SDS011;15148;48.972;12.794;2022-07-29T22:25:53;6.40;;;5.80;;
27758;SDS011;15148;48.972;12.794;2022-07-29T22:30:55;5.55;;;5.05;;
27758;SDS011;15148;48.972;12.794;2022-07-29T22:35:56;6.30;;;5.70;;
27758;SDS011;15148;48.972;12.794;2022-07-29T22:40:58;7.15;;;5.90;;
27758;SDS011;15148;48.972;12.794;2022-07-29T22:46:01;6.28;;;5.68;;
27758;SDS011;15148;48.972;12.794;2022-07-29T22:51:03;7.50;;;5.32;;
27758;SDS011;15148;48.972;12.794;2022-07-29T22:56:05;5.75;;;5.18;;
27758;SDS011;15148;48.972;12.794;2022-07-29T23:01:07;5.93;;;5.43;;
27758;SDS011;15148;48.972;12.794;2022-07-29T23:06:09;5.68;;;5.18;;
27758;SDS011;15148;48.972;12.794;2022-07-29T23:11:11;5.72;;;5.32;;
27758;SDS011;15148;48.972;12.794;2022-07-29T23:16:13;6.57;;;5.60;;
27758;SDS011;15148;48.972;12.794;2022-07-29T23:21:27;6.55;;;5.97;;
27758;SDS011;15148;48.972;12.794;2022-07-29T23:26:28;7.22;;;6.53;;
27758;SDS011;15148;48.972;12.794;2022-07-29T23:31:32;7.43;;;6.82;;
27758;SDS011;15148;48.972;12.794;2022-07-29T23:36:42;10.50;;;7.55;;
27758;SDS011;15148;48.972;12.794;2022-07-29T23:41:44;8.07;;;7.38;;
27758;SDS011;15148;48.972;12.794;2022-07-29T23:46:45;7.45;;;6.82;;
27758;SDS011;15148;48.972;12.794;2022-07-29T23:51:47;6.18;;;5.68;;
27758;SDS011;15148;48.972;12.794;2022-07-29T23:56:49;6.90;;;6.25;;
